Time;durP1;ratioP1;P1;durP2;ratioP2;P2;SDS_P1;SDS_P2;PMS_P1;PMS_P2;Temp;Humidity;BMP_temperature;BMP_pressure;BME280_temperature;BME280_humidity;BME280_pressure;Samples;Min_cycle;Max_cycle;Signal;HPM_P1;HPM_P2
2022/09/05 00:01:09;;;;;;;1.83;1.15;;;;;;;;;;5033555;28;20449;-63
2022/09/05 00:03:51;;;;;;;4.22;1.33;;;;;;;;;;5033230;28;20095;-63
2022/09/05 00:06:18;;;;;;;4.95;1.40;;;;;;;;;;5033201;28;20025;-62
2022/09/05 00:08:56;;;;;;;4.00;1.40;;;;;;;;;;5033169;28;20024;-63
2022/09/05 00:11:31;;;;;;;2.30;1.38;;;;;;;;;;5032953;28;20478;-63
2022/09/05 00:13:56;;;;;;;6.70;1.30;;;;;;;;;;5032981;28;20018;-63
2022/09/05 00:16:43;;;;;;;4.10;1.25;;;;;;;;;;5032986;28;20025;-63
2022/09/05 00:19:14;;;;;;;2.55;1.40;;;;;;;;;;5032671;28;20017;-63
2022/09/05 00:21:54;;;;;;;4.28;1.40;;;;;;;;;;5032911;28;20032;-62
2022/09/05 00:27:05;;;;;;;2.30;1.17;;;;;;;;;;5173014;22;20060;-64
2022/09/05 00:29:33;;;;;;;2.40;1.40;;;;;;;;;;5032792;28;20155;-62
2022/09/05 00:32:03;;;;;;;2.65;1.27;;;;;;;;;;5032521;28;20056;-62
2022/09/05 00:34:28;;;;;;;;;;;;;;;;;;5033204;28;20033;-62
2022/09/05 00:36:54;;;;;;;1.60;1.15;;;;;;;;;;5032697;28;20329;-64
2022/09/05 00:39:33;;;;;;;2.50;1.17;;;;;;;;;;5032884;28;20034;-64
2022/09/05 00:42:05;;;;;;;2.63;1.70;;;;;;;;;;5032774;28;20037;-64
2022/09/05 00:44:33;;;;;;;3.05;1.30;;;;;;;;;;5032742;28;20029;-62
2022/09/05 00:47:05;;;;;;;3.50;1.30;;;;;;;;;;5032632;28;20033;-62
2022/09/05 00:49:39;;;;;;;4.88;1.45;;;;;;;;;;5032747;28;20032;-64
2022/09/05 00:52:28;;;;;;;3.35;1.60;;;;;;;;;;5032974;28;20532;-64
2022/09/05 00:54:53;;;;;;;3.30;1.30;;;;;;;;;;5032516;28;20103;-63
2022/09/05 00:57:27;;;;;;;2.65;1.23;;;;;;;;;;5032692;28;20474;-64
2022/09/05 01:00:12;;;;;;;2.33;1.20;;;;;;;;;;5032575;28;20034;-64
2022/09/05 01:02:44;;;;;;;2.30;1.20;;;;;;;;;;5032671;28;20029;-64
2022/09/05 01:05:36;;;;;;;3.53;1.30;;;;;;;;;;5032723;28;20057;-64
2022/09/05 01:08:22;;;;;;;2.28;1.13;;;;;;;;;;5032599;28;20474;-63
2022/09/05 01:11:16;;;;;;;3.33;1.20;;;;;;;;;;5032683;28;20149;-64
2022/09/05 01:14:18;;;;;;;3.20;1.20;;;;;;;;;;5032669;28;20022;-64
2022/09/05 01:16:52;;;;;;;3.05;1.38;;;;;;;;;;5032546;28;20025;-64
2022/09/05 01:19:30;;;;;;;2.78;1.20;;;;;;;;;;5032649;28;20025;-62
2022/09/05 01:22:14;;;;;;;2.20;1.10;;;;;;;;;;5032491;28;20478;-62
2022/09/05 01:25:13;;;;;;;2.80;1.00;;;;;;;;;;5032173;28;20389;-62
2022/09/05 01:27:41;;;;;;;1.73;1.00;;;;;;;;;;5012739;28;20046;-62
2022/09/05 01:30:26;;;;;;;2.05;1.15;;;;;;;;;;5014215;28;20033;-64
2022/09/05 01:33:09;;;;;;;2.58;1.20;;;;;;;;;;5016288;28;20033;-62
2022/09/05 01:35:53;;;;;;;2.65;1.10;;;;;;;;;;5016315;28;20483;-62
2022/09/05 01:38:27;;;;;;;4.88;1.10;;;;;;;;;;5015918;28;20494;-62
2022/09/05 01:41:04;;;;;;;3.25;1.27;;;;;;;;;;5016190;28;20030;-62
2022/09/05 01:44:04;;;;;;;4.55;1.10;;;;;;;;;;5016015;28;20120;-62
2022/09/05 01:46:50;;;;;;;5.93;1.20;;;;;;;;;;5016011;28;20088;-63
2022/09/05 01:49:50;;;;;;;0.93;0.80;;;;;;;;;;5016145;28;20025;-65
2022/09/05 01:52:39;;;;;;;2.15;1.10;;;;;;;;;;5015889;28;20490;-64
2022/09/05 01:55:32;;;;;;;4.28;1.30;;;;;;;;;;4994212;28;20042;-64
2022/09/05 01:58:16;;;;;;;1.33;0.93;;;;;;;;;;4994362;28;20045;-64
2022/09/05 02:00:45;;;;;;;3.80;1.25;;;;;;;;;;5008342;28;20038;-64
2022/09/05 02:03:32;;;;;;;1.85;1.00;;;;;;;;;;5013661;28;20075;-64
2022/09/05 02:06:00;;;;;;;1.98;0.90;;;;;;;;;;5013744;28;20463;-64
2022/09/05 02:08:40;;;;;;;2.17;1.00;;;;;;;;;;5013559;28;20045;-64
2022/09/05 02:11:10;;;;;;;2.67;1.10;;;;;;;;;;5013630;28;20442;-64
2022/09/05 02:13:36;;;;;;;2.13;1.00;;;;;;;;;;5013583;28;20479;-64
2022/09/05 02:16:27;;;;;;;1.48;1.00;;;;;;;;;;5013464;28;20149;-64
2022/09/05 02:19:05;;;;;;;2.10;1.02;;;;;;;;;;5013536;28;20057;-64
2022/09/05 02:21:39;;;;;;;2.83;1.00;;;;;;;;;;5013174;28;20362;-64
2022/09/05 02:24:13;;;;;;;1.65;1.10;;;;;;;;;;5013491;28;20038;-62
2022/09/05 02:26:49;;;;;;;2.60;1.10;;;;;;;;;;5013111;28;20050;-62
2022/09/05 02:29:38;;;;;;;2.55;1.15;;;;;;;;;;5013317;28;20454;-62
2022/09/05 02:32:23;;;;;;;2.15;0.90;;;;;;;;;;4929173;29;20038;-62
2022/09/05 02:35:18;;;;;;;6.68;1.13;;;;;;;;;;4954819;29;20050;-63
2022/09/05 02:37:53;;;;;;;2.08;1.10;;;;;;;;;;4954630;29;20126;-62
2022/09/05 02:40:35;;;;;;;3.80;1.05;;;;;;;;;;4954684;28;20046;-64
2022/09/05 02:43:08;;;;;;;2.20;1.20;;;;;;;;;;4954470;29;20047;-62
2022/09/05 02:45:38;;;;;;;5.70;1.30;;;;;;;;;;4954369;29;20027;-62
2022/09/05 02:48:35;;;;;;;4.20;1.20;;;;;;;;;;4954641;29;20484;-62
2022/09/05 02:51:14;;;;;;;2.42;0.93;;;;;;;;;;4954353;29;20043;-62
2022/09/05 02:53:45;;;;;;;3.35;1.00;;;;;;;;;;4954477;29;20035;-62
2022/09/05 02:56:14;;;;;;;3.20;1.15;;;;;;;;;;4954263;29;20043;-62
2022/09/05 02:59:14;;;;;;;3.22;1.20;;;;;;;;;;4954155;28;20543;-63
2022/09/05 03:01:48;;;;;;;5.28;1.20;;;;;;;;;;4954207;29;20064;-63
2022/09/05 03:04:19;;;;;;;2.38;1.10;;;;;;;;;;4954158;28;20031;-63
2022/09/05 03:07:10;;;;;;;3.47;1.20;;;;;;;;;;4954030;29;20042;-63
2022/09/05 03:09:59;;;;;;;1.98;1.02;;;;;;;;;;5010870;28;20049;-62
2022/09/05 03:12:42;;;;;;;1.45;1.00;;;;;;;;;;5034172;28;20376;-64
2022/09/05 03:15:26;;;;;;;2.30;1.00;;;;;;;;;;5034226;28;20470;-64
2022/09/05 03:18:19;;;;;;;1.95;1.20;;;;;;;;;;5034074;28;20108;-63
2022/09/05 03:21:21;;;;;;;3.50;1.05;;;;;;;;;;5033613;28;20075;-63
2022/09/05 03:24:22;;;;;;;3.10;1.08;;;;;;;;;;5033921;28;20512;-62
2022/09/05 03:27:25;;;;;;;4.85;1.13;;;;;;;;;;5033768;28;20045;-63
2022/09/05 03:30:19;;;;;;;2.72;1.00;;;;;;;;;;5034035;28;20025;-62
2022/09/05 03:33:12;;;;;;;2.75;1.20;;;;;;;;;;5033968;28;20032;-62
2022/09/05 03:36:08;;;;;;;2.00;1.10;;;;;;;;;;5033301;28;20053;-62
2022/09/05 03:39:01;;;;;;;3.08;1.00;;;;;;;;;;5033397;28;20039;-62
2022/09/05 03:41:43;;;;;;;4.00;1.02;;;;;;;;;;5033325;28;20029;-62
2022/09/05 03:44:43;;;;;;;5.00;1.23;;;;;;;;;;5033539;28;20103;-62
2022/09/05 03:47:18;;;;;;;1.75;1.00;;;;;;;;;;5033615;28;20017;-62
2022/09/05 03:49:43;;;;;;;3.17;1.00;;;;;;;;;;5033270;28;20044;-62
2022/09/05 03:52:38;;;;;;;3.67;1.30;;;;;;;;;;5032932;28;20367;-63
2022/09/05 03:55:23;;;;;;;4.57;1.70;;;;;;;;;;5011497;28;20038;-63
2022/09/05 03:58:21;;;;;;;1.90;1.15;;;;;;;;;;5011696;28;20141;-62
2022/09/05 04:01:17;;;;;;;3.45;1.25;;;;;;;;;;5003533;28;20080;-63
2022/09/05 04:03:48;;;;;;;2.67;1.08;;;;;;;;;;5011076;28;20625;-63
2022/09/05 04:06:26;;;;;;;4.30;1.10;;;;;;;;;;5011415;28;20489;-63
2022/09/05 04:09:00;;;;;;;3.50;1.23;;;;;;;;;;5011154;28;20109;-62
2022/09/05 04:11:48;;;;;;;2.97;1.10;;;;;;;;;;5011175;28;20095;-62
2022/09/05 04:14:23;;;;;;;1.73;1.13;;;;;;;;;;5011221;28;20091;-62
2022/09/05 04:16:52;;;;;;;1.52;1.08;;;;;;;;;;5010946;28;20037;-62
2022/09/05 04:19:46;;;;;;;1.85;1.08;;;;;;;;;;5011205;28;20477;-62
2022/09/05 04:22:14;;;;;;;3.42;1.20;;;;;;;;;;5011053;28;20107;-63
2022/09/05 04:25:10;;;;;;;4.03;1.38;;;;;;;;;;5010961;28;20046;-62
2022/09/05 04:27:51;;;;;;;3.22;1.10;;;;;;;;;;4994455;28;20062;-62
2022/09/05 04:30:41;;;;;;;4.90;1.33;;;;;;;;;;5010831;28;20030;-63
2022/09/05 04:33:19;;;;;;;2.88;1.30;;;;;;;;;;5032622;28;20037;-63
2022/09/05 04:36:03;;;;;;;3.17;1.38;;;;;;;;;;5032676;28;20042;-67
2022/09/05 04:38:40;;;;;;;2.08;1.20;;;;;;;;;;5032477;28;20390;-62
2022/09/05 04:41:17;;;;;;;2.55;1.27;;;;;;;;;;5032844;28;20018;-62
2022/09/05 04:43:55;;;;;;;2.33;1.00;;;;;;;;;;5032722;28;20453;-63
2022/09/05 04:46:27;;;;;;;2.05;1.13;;;;;;;;;;5032391;28;20071;-63
2022/09/05 04:48:58;;;;;;;4.55;1.23;;;;;;;;;;5032576;28;20037;-63
2022/09/05 04:52:00;;;;;;;3.05;1.40;;;;;;;;;;5032492;28;20080;-64
2022/09/05 04:54:47;;;;;;;3.20;1.15;;;;;;;;;;5032608;28;20026;-63
2022/09/05 04:57:36;;;;;;;2.00;1.17;;;;;;;;;;5032733;28;20029;-63
2022/09/05 05:00:11;;;;;;;2.65;1.30;;;;;;;;;;5032515;28;20037;-63
2022/09/05 05:02:45;;;;;;;4.38;1.42;;;;;;;;;;5032195;28;20026;-62
2022/09/05 05:05:23;;;;;;;2.97;1.20;;;;;;;;;;5034320;28;20024;-62
2022/09/05 05:08:04;;;;;;;3.00;1.20;;;;;;;;;;5036389;28;20026;-62
2022/09/05 05:10:34;;;;;;;2.25;1.27;;;;;;;;;;5036588;28;20126;-62
2022/09/05 05:13:00;;;;;;;2.13;1.20;;;;;;;;;;5036357;28;20021;-63
2022/09/05 05:15:29;;;;;;;4.53;1.20;;;;;;;;;;5035902;28;20026;-63
2022/09/05 05:18:01;;;;;;;3.50;1.40;;;;;;;;;;5036287;28;20030;-63
2022/09/05 05:20:43;;;;;;;2.47;1.50;;;;;;;;;;5036361;28;20462;-63
2022/09/05 05:23:15;;;;;;;4.63;1.30;;;;;;;;;;5036173;28;20126;-63
2022/09/05 05:25:53;;;;;;;4.07;1.30;;;;;;;;;;5035817;28;20120;-63
2022/09/05 05:28:30;;;;;;;7.85;1.40;;;;;;;;;;5035955;28;20033;-63
2022/09/05 05:31:08;;;;;;;5.03;1.50;;;;;;;;;;5036235;28;20344;-63
2022/09/05 05:33:37;;;;;;;3.30;1.30;;;;;;;;;;5035950;28;20033;-63
2022/09/05 05:36:08;;;;;;;2.65;1.30;;;;;;;;;;5035749;28;20382;-63
2022/09/05 05:38:45;;;;;;;2.17;1.38;;;;;;;;;;5035796;28;20554;-63
2022/09/05 05:41:37;;;;;;;5.75;1.40;;;;;;;;;;5035901;28;20017;-63
2022/09/05 05:44:16;;;;;;;4.70;1.73;;;;;;;;;;5035470;28;20033;-63
2022/09/05 05:47:17;;;;;;;2.55;1.27;;;;;;;;;;5035868;28;20024;-63
2022/09/05 05:49:54;;;;;;;5.65;1.48;;;;;;;;;;5035758;28;20049;-63
2022/09/05 05:52:51;;;;;;;3.13;1.70;;;;;;;;;;5035679;28;20100;-63
2022/09/05 05:55:38;;;;;;;6.93;1.60;;;;;;;;;;5035550;28;20055;-63
2022/09/05 05:58:15;;;;;;;6.57;1.40;;;;;;;;;;5035399;28;20063;-64
2022/09/05 06:01:05;;;;;;;4.53;1.50;;;;;;;;;;5035389;28;20095;-63
2022/09/05 06:03:52;;;;;;;4.22;1.80;;;;;;;;;;5035459;28;20036;-63
2022/09/05 06:06:41;;;;;;;4.85;1.35;;;;;;;;;;5035593;28;20029;-64
2022/09/05 06:09:31;;;;;;;4.38;1.42;;;;;;;;;;5035590;28;20064;-62
2022/09/05 06:12:31;;;;;;;4.35;1.70;;;;;;;;;;5035572;28;20036;-63
2022/09/05 06:15:02;;;;;;;6.68;1.90;;;;;;;;;;5034918;28;20098;-66
2022/09/05 06:17:30;;;;;;;2.67;1.40;;;;;;;;;;5035253;28;20482;-65
2022/09/05 06:20:23;;;;;;;4.25;1.70;;;;;;;;;;5034987;28;20025;-63
2022/09/05 06:23:28;;;;;;;6.53;2.00;;;;;;;;;;5035046;28;20025;-63
2022/09/05 06:26:31;;;;;;;6.30;2.47;;;;;;;;;;5034589;28;20037;-63
2022/09/05 06:29:14;;;;;;;6.22;1.80;;;;;;;;;;5034530;28;20087;-65
2022/09/05 06:32:26;;;;;;;4.60;1.70;;;;;;;;;;5035091;28;20510;-64
2022/09/05 06:35:00;;;;;;;3.05;1.50;;;;;;;;;;5034669;28;20478;-64
2022/09/05 06:37:35;;;;;;;7.15;1.77;;;;;;;;;;5034687;28;20463;-64
2022/09/05 06:40:18;;;;;;;2.72;1.30;;;;;;;;;;5034741;28;20021;-63
2022/09/05 06:42:57;;;;;;;5.15;1.80;;;;;;;;;;5034412;28;20025;-63
2022/09/05 06:45:57;;;;;;;5.57;1.65;;;;;;;;;;5034666;28;20025;-63
2022/09/05 06:48:31;;;;;;;4.80;1.65;;;;;;;;;;5034609;28;20034;-63
2022/09/05 06:51:17;;;;;;;10.63;1.58;;;;;;;;;;5034708;28;20029;-64
2022/09/05 06:54:04;;;;;;;5.05;1.48;;;;;;;;;;5034664;28;20474;-63
2022/09/05 06:56:44;;;;;;;3.97;1.73;;;;;;;;;;5034414;28;20022;-63
2022/09/05 06:59:34;;;;;;;7.38;1.80;;;;;;;;;;5034337;28;20247;-67
2022/09/05 07:02:12;;;;;;;11.35;1.70;;;;;;;;;;5031609;28;20022;-64
2022/09/05 07:04:43;;;;;;;8.60;2.08;;;;;;;;;;5034540;28;20130;-64
2022/09/05 07:07:43;;;;;;;6.93;1.70;;;;;;;;;;5032806;28;20053;-65
2022/09/05 07:10:22;;;;;;;11.00;1.85;;;;;;;;;;5030197;28;20042;-64
2022/09/05 07:12:55;;;;;;;5.75;1.67;;;;;;;;;;5029713;28;20034;-64
2022/09/05 07:15:41;;;;;;;10.07;2.15;;;;;;;;;;5027731;28;20489;-66
2022/09/05 07:18:21;;;;;;;7.90;1.58;;;;;;;;;;5029550;28;20649;-64
2022/09/05 07:20:52;;;;;;;6.78;1.92;;;;;;;;;;5026706;28;20021;-64
2022/09/05 07:23:27;;;;;;;8.10;1.83;;;;;;;;;;5029307;28;20025;-63
2022/09/05 07:25:54;;;;;;;8.27;2.30;;;;;;;;;;5028664;28;20053;-63
2022/09/05 07:28:21;;;;;;;4.90;1.80;;;;;;;;;;5030387;28;20036;-64
2022/09/05 07:30:51;;;;;;;5.55;1.63;;;;;;;;;;5026527;28;20014;-63
2022/09/05 07:33:24;;;;;;;6.00;2.17;;;;;;;;;;5021948;28;20383;-63
2022/09/05 07:35:50;;;;;;;9.88;2.20;;;;;;;;;;5023287;28;20016;-64
2022/09/05 07:38:22;;;;;;;4.75;2.00;;;;;;;;;;5021826;28;20078;-64
2022/09/05 07:41:01;;;;;;;7.63;2.00;;;;;;;;;;5023844;28;20108;-64
2022/09/05 07:43:34;;;;;;;3.55;1.40;;;;;;;;;;5023092;28;20483;-63
2022/09/05 07:46:00;;;;;;;8.02;1.90;;;;;;;;;;5022761;28;20467;-63
2022/09/05 07:48:33;;;;;;;6.40;1.83;;;;;;;;;;5022085;28;20024;-65
2022/09/05 07:51:02;;;;;;;3.78;1.85;;;;;;;;;;5022840;28;20030;-64
2022/09/05 07:53:28;;;;;;;8.02;2.03;;;;;;;;;;5021781;28;20108;-63
2022/09/05 07:55:57;;;;;;;6.93;2.08;;;;;;;;;;5023636;28;20021;-63
2022/09/05 07:58:31;;;;;;;5.05;1.60;;;;;;;;;;5023137;28;20030;-63
2022/09/05 08:00:57;;;;;;;6.45;2.08;;;;;;;;;;5045868;28;20494;-64
2022/09/05 08:03:28;;;;;;;3.53;1.60;;;;;;;;;;5022366;28;20060;-63
2022/09/05 08:05:59;;;;;;;7.78;1.98;;;;;;;;;;5023775;28;20053;-63
2022/09/05 08:08:32;;;;;;;8.18;1.90;;;;;;;;;;5023024;28;20022;-64
2022/09/05 08:11:09;;;;;;;7.53;1.88;;;;;;;;;;5022114;28;20443;-63
2022/09/05 08:13:41;;;;;;;3.83;1.45;;;;;;;;;;5021822;28;20029;-64
2022/09/05 08:16:10;;;;;;;4.53;1.60;;;;;;;;;;5021633;28;20026;-64
2022/09/05 08:18:48;;;;;;;8.15;2.00;;;;;;;;;;5013179;28;20018;-63
2022/09/05 08:21:51;;;;;;;8.52;1.85;;;;;;;;;;5015908;28;20041;-64
2022/09/05 08:24:25;;;;;;;11.55;2.30;;;;;;;;;;5010563;28;20041;-65
2022/09/05 08:26:59;;;;;;;8.27;2.10;;;;;;;;;;4996699;28;20038;-64
2022/09/05 08:29:35;;;;;;;5.70;1.90;;;;;;;;;;4980484;28;20122;-63
2022/09/05 08:32:01;;;;;;;6.47;1.80;;;;;;;;;;4971705;28;20035;-64
2022/09/05 08:34:55;;;;;;;7.63;1.92;;;;;;;;;;4971819;28;20046;-64
2022/09/05 08:37:24;;;;;;;4.43;1.88;;;;;;;;;;4971834;28;20023;-63
2022/09/05 08:39:56;;;;;;;3.15;1.67;;;;;;;;;;4971357;28;20125;-63
2022/09/05 08:42:34;;;;;;;5.13;2.00;;;;;;;;;;4971733;28;20058;-63
2022/09/05 08:45:18;;;;;;;5.90;1.80;;;;;;;;;;4971510;28;20046;-63
2022/09/05 08:47:54;;;;;;;12.75;2.22;;;;;;;;;;4971276;28;20042;-63
2022/09/05 08:50:52;;;;;;;7.82;2.30;;;;;;;;;;4971671;28;20035;-63
2022/09/05 08:53:34;;;;;;;8.00;2.30;;;;;;;;;;4971406;28;20038;-63
2022/09/05 08:56:14;;;;;;;11.40;2.30;;;;;;;;;;4984464;28;20495;-63
2022/09/05 08:58:56;;;;;;;7.57;2.28;;;;;;;;;;5019090;28;20064;-64
2022/09/05 09:01:27;;;;;;;4.88;1.88;;;;;;;;;;5032185;28;20071;-63
2022/09/05 09:04:18;;;;;;;5.57;2.08;;;;;;;;;;5032268;28;20044;-64
2022/09/05 09:07:01;;;;;;;5.63;1.50;;;;;;;;;;5032389;28;20458;-65
2022/09/05 09:09:57;;;;;;;3.85;1.80;;;;;;;;;;5031934;28;20078;-63
2022/09/05 09:13:01;;;;;;;8.40;1.80;;;;;;;;;;5032346;28;20033;-64
2022/09/05 09:15:49;;;;;;;5.50;2.00;;;;;;;;;;5031874;28;20045;-64
2022/09/05 09:18:17;;;;;;;12.75;2.67;;;;;;;;;;5032295;28;20104;-64
2022/09/05 09:21:21;;;;;;;12.35;2.15;;;;;;;;;;5030705;28;20037;-63
2022/09/05 09:24:05;;;;;;;9.98;2.28;;;;;;;;;;5021555;28;20030;-64
2022/09/05 09:26:41;;;;;;;5.63;1.80;;;;;;;;;;5022407;28;20041;-64
2022/09/05 09:29:12;;;;;;;3.85;1.60;;;;;;;;;;5021961;28;20021;-63
2022/09/05 09:32:03;;;;;;;5.53;1.55;;;;;;;;;;5020119;28;20080;-64
2022/09/05 09:34:53;;;;;;;8.52;1.88;;;;;;;;;;5012344;28;20493;-63
2022/09/05 09:37:37;;;;;;;8.85;2.08;;;;;;;;;;5012515;28;20394;-64
2022/09/05 09:40:40;;;;;;;13.10;1.80;;;;;;;;;;5012281;28;20029;-64
2022/09/05 09:43:26;;;;;;;10.68;1.98;;;;;;;;;;5012132;28;20383;-64
2022/09/05 09:46:14;;;;;;;3.60;1.52;;;;;;;;;;5012189;28;20018;-64
2022/09/05 09:48:45;;;;;;;6.10;1.70;;;;;;;;;;5027435;28;20146;-63
2022/09/05 09:51:25;;;;;;;5.35;1.70;;;;;;;;;;5033207;28;20061;-63
2022/09/05 09:54:28;;;;;;;5.60;1.88;;;;;;;;;;5035421;28;20029;-64
2022/09/05 09:57:30;;;;;;;4.95;1.92;;;;;;;;;;5035438;28;20017;-64
2022/09/05 10:00:09;;;;;;;7.80;1.92;;;;;;;;;;5035527;28;20029;-63
2022/09/05 10:03:11;;;;;;;5.30;1.75;;;;;;;;;;5035603;28;20478;-64
2022/09/05 10:06:09;;;;;;;7.70;2.22;;;;;;;;;;5034911;28;20026;-63
2022/09/05 10:09:05;;;;;;;5.80;1.80;;;;;;;;;;5032923;28;20042;-63
2022/09/05 10:11:58;;;;;;;3.67;1.40;;;;;;;;;;5032937;28;20075;-63
2022/09/05 10:14:45;;;;;;;2.42;1.40;;;;;;;;;;5020541;28;20041;-63
2022/09/05 10:17:19;;;;;;;4.72;1.90;;;;;;;;;;5013265;28;20517;-63
2022/09/05 10:20:09;;;;;;;4.90;1.80;;;;;;;;;;5012971;28;20557;-63
2022/09/05 10:23:04;;;;;;;11.98;2.08;;;;;;;;;;5013261;28;20030;-63
2022/09/05 10:26:03;;;;;;;10.32;1.73;;;;;;;;;;5015433;28;20125;-63
2022/09/05 10:29:03;;;;;;;7.57;2.25;;;;;;;;;;5032542;28;20044;-63
2022/09/05 10:31:56;;;;;;;5.50;1.70;;;;;;;;;;5032665;28;20048;-63
2022/09/05 10:34:23;;;;;;;2.95;1.50;;;;;;;;;;5031928;28;20026;-63
2022/09/05 10:36:58;;;;;;;3.45;1.67;;;;;;;;;;5032702;28;20021;-63
2022/09/05 10:39:34;;;;;;;3.65;1.48;;;;;;;;;;5032448;28;20092;-63
2022/09/05 10:42:24;;;;;;;8.10;1.90;;;;;;;;;;5032317;28;20030;-63
2022/09/05 10:44:49;;;;;;;;;;;;;;;;;;5024329;28;20052;-63
2022/09/05 10:47:37;;;;;;;3.03;1.30;;;;;;;;;;5034659;28;19913;-63
2022/09/05 10:50:06;;;;;;;4.07;1.30;;;;;;;;;;5033848;28;20032;-63
2022/09/05 10:52:56;;;;;;;2.42;1.40;;;;;;;;;;5034474;28;20092;-63
2022/09/05 10:55:59;;;;;;;5.05;1.55;;;;;;;;;;5034500;28;20108;-63
2022/09/05 10:58:42;;;;;;;3.85;1.60;;;;;;;;;;5034404;28;20108;-65
2022/09/05 11:01:45;;;;;;;2.75;1.42;;;;;;;;;;5034163;28;20479;-63
2022/09/05 11:04:38;;;;;;;4.78;1.80;;;;;;;;;;4992065;28;20507;-63
2022/09/05 11:07:22;;;;;;;2.85;1.40;;;;;;;;;;4992386;28;20034;-62
2022/09/05 11:10:03;;;;;;;5.20;1.55;;;;;;;;;;4992694;28;20038;-64
2022/09/05 11:12:43;;;;;;;2.15;1.33;;;;;;;;;;4992806;28;20026;-62
2022/09/05 11:15:28;;;;;;;3.60;1.50;;;;;;;;;;4992545;28;20046;-64
2022/09/05 11:18:00;;;;;;;3.38;1.42;;;;;;;;;;4992446;28;20022;-64
2022/09/05 11:20:43;;;;;;;2.88;1.30;;;;;;;;;;4992441;28;20030;-64
2022/09/05 11:23:29;;;;;;;2.63;1.30;;;;;;;;;;4992384;28;20046;-63
2022/09/05 11:26:06;;;;;;;4.47;1.50;;;;;;;;;;4985392;28;20043;-63
2022/09/05 11:28:41;;;;;;;7.38;1.40;;;;;;;;;;4972623;28;20035;-63
2022/09/05 11:31:14;;;;;;;2.75;1.50;;;;;;;;;;4972891;28;20018;-63
2022/09/05 11:34:01;;;;;;;4.85;1.45;;;;;;;;;;4972537;28;20053;-63
2022/09/05 11:36:35;;;;;;;5.03;1.40;;;;;;;;;;4956649;28;20034;-63
2022/09/05 11:39:15;;;;;;;23.60;3.00;;;;;;;;;;4972794;28;20062;-63
2022/09/05 11:42:20;;;;;;;6.13;1.45;;;;;;;;;;5005271;28;20057;-64
2022/09/05 11:44:52;;;;;;;8.90;2.33;;;;;;;;;;5013282;28;20128;-63
2022/09/05 11:47:39;;;;;;;4.53;1.50;;;;;;;;;;5013123;28;20032;-63
2022/09/05 11:50:13;;;;;;;4.82;1.13;;;;;;;;;;5013911;28;20053;-63
2022/09/05 11:52:50;;;;;;;6.60;1.30;;;;;;;;;;5013728;28;20026;-63
2022/09/05 11:55:21;;;;;;;8.40;1.70;;;;;;;;;;5013453;28;20120;-63
2022/09/05 11:58:12;;;;;;;4.90;1.70;;;;;;;;;;5013691;28;20101;-64
2022/09/05 12:00:56;;;;;;;5.88;1.60;;;;;;;;;;5013644;28;20087;-63
2022/09/05 12:03:37;;;;;;;7.03;1.63;;;;;;;;;;5013455;28;20030;-63
2022/09/05 12:06:33;;;;;;;4.18;1.50;;;;;;;;;;5013192;28;20332;-63
2022/09/05 12:09:08;;;;;;;7.38;1.70;;;;;;;;;;5013394;28;20406;-63
2022/09/05 12:12:10;;;;;;;9.55;1.60;;;;;;;;;;5013104;28;20025;-63
2022/09/05 12:14:56;;;;;;;13.15;2.20;;;;;;;;;;5012350;28;20328;-63
2022/09/05 12:17:39;;;;;;;2.95;1.25;;;;;;;;;;5012786;28;20057;-63
2022/09/05 12:20:21;;;;;;;3.75;1.65;;;;;;;;;;5013102;28;20026;-62
2022/09/05 12:23:01;;;;;;;3.08;1.60;;;;;;;;;;5013060;28;20414;-63
2022/09/05 12:25:26;;;;;;;4.10;1.40;;;;;;;;;;5015087;28;20149;-64
2022/09/05 12:27:59;;;;;;;6.32;1.50;;;;;;;;;;5032709;28;20485;-63
2022/09/05 12:30:27;;;;;;;2.55;1.60;;;;;;;;;;5032234;28;20367;-63
2022/09/05 12:32:56;;;;;;;4.85;1.60;;;;;;;;;;5032659;28;20378;-62
2022/09/05 12:35:38;;;;;;;3.60;1.43;;;;;;;;;;5032526;28;20117;-63
2022/09/05 12:38:42;;;;;;;6.40;1.55;;;;;;;;;;5032698;28;20437;-63
2022/09/05 12:41:14;;;;;;;4.57;1.30;;;;;;;;;;5032435;28;20037;-63
2022/09/05 12:43:54;;;;;;;4.78;1.52;;;;;;;;;;5032287;28;20128;-64
2022/09/05 12:46:25;;;;;;;5.30;1.65;;;;;;;;;;5032194;28;20091;-63
2022/09/05 12:49:01;;;;;;;4.55;1.48;;;;;;;;;;5020094;28;20344;-64
2022/09/05 12:51:32;;;;;;;3.88;1.42;;;;;;;;;;5012510;28;20038;-63
2022/09/05 12:54:06;;;;;;;4.65;1.50;;;;;;;;;;5012695;28;20087;-63
2022/09/05 12:56:56;;;;;;;3.60;1.45;;;;;;;;;;5012639;28;20026;-63
2022/09/05 12:59:25;;;;;;;4.20;1.50;;;;;;;;;;5012355;28;20498;-63
2022/09/05 13:02:02;;;;;;;9.02;2.13;;;;;;;;;;5012574;28;20073;-63
2022/09/05 13:04:33;;;;;;;3.47;1.30;;;;;;;;;;5012403;28;20072;-65
2022/09/05 13:07:10;;;;;;;6.53;1.77;;;;;;;;;;5012644;28;20160;-64
2022/09/05 13:09:42;;;;;;;4.75;1.60;;;;;;;;;;5012505;28;20120;-63
2022/09/05 13:12:15;;;;;;;1.90;1.20;;;;;;;;;;5012799;28;20030;-63
2022/09/05 13:14:56;;;;;;;2.72;1.20;;;;;;;;;;5012231;28;20025;-66
2022/09/05 13:17:37;;;;;;;3.03;1.58;;;;;;;;;;5012456;28;20041;-66
2022/09/05 13:20:14;;;;;;;5.53;1.73;;;;;;;;;;5012329;28;20037;-64
2022/09/05 13:22:42;;;;;;;6.60;1.67;;;;;;;;;;5012408;28;20033;-63
2022/09/05 13:25:15;;;;;;;4.45;1.63;;;;;;;;;;5012078;28;20056;-65
2022/09/05 13:27:55;;;;;;;2.85;1.60;;;;;;;;;;5015943;28;20038;-65
2022/09/05 13:30:23;;;;;;;5.55;1.90;;;;;;;;;;5014813;28;20041;-63
2022/09/05 13:32:50;;;;;;;3.28;1.50;;;;;;;;;;5016204;28;20056;-63
2022/09/05 13:35:21;;;;;;;5.10;1.75;;;;;;;;;;5016250;28;20025;-64
2022/09/05 13:37:59;;;;;;;6.18;1.50;;;;;;;;;;5021324;28;20378;-64
2022/09/05 13:40:32;;;;;;;5.22;1.50;;;;;;;;;;5026441;28;20033;-63
2022/09/05 13:43:13;;;;;;;4.00;1.55;;;;;;;;;;5024923;28;20045;-69
2022/09/05 13:46:24;;;;;;;5.07;1.45;;;;;;;;;;5027961;28;20029;-64
2022/09/05 13:49:07;;;;;;;8.75;1.70;;;;;;;;;;5000350;28;20041;-63
2022/09/05 13:51:55;;;;;;;5.03;1.38;;;;;;;;;;5011365;28;20042;-65
2022/09/05 13:54:38;;;;;;;6.13;1.15;;;;;;;;;;5012530;28;20109;-64
2022/09/05 13:57:38;;;;;;;3.58;1.40;;;;;;;;;;4996525;28;20417;-64
2022/09/05 14:00:09;;;;;;;5.03;1.30;;;;;;;;;;5012683;28;20427;-64
2022/09/05 14:03:01;;;;;;;4.03;1.70;;;;;;;;;;5012690;28;20033;-64
2022/09/05 14:05:40;;;;;;;2.58;1.60;;;;;;;;;;5010250;28;20041;-65
2022/09/05 14:08:33;;;;;;;2.58;1.45;;;;;;;;;;5012920;28;20021;-65
2022/09/05 14:11:31;;;;;;;3.75;1.48;;;;;;;;;;5013442;28;20045;-63
2022/09/05 14:14:24;;;;;;;5.50;1.75;;;;;;;;;;4954968;28;20039;-64
2022/09/05 14:17:16;;;;;;;5.82;1.40;;;;;;;;;;4954925;29;20037;-64
2022/09/05 14:22:48;;;;;;;5.40;1.83;;;;;;;;;;4954982;29;20405;-64
2022/09/05 14:25:26;;;;;;;1.80;1.20;;;;;;;;;;4954864;28;20050;-64
2022/09/05 14:27:53;;;;;;;7.15;1.40;;;;;;;;;;4957536;28;20046;-64
2022/09/05 14:30:39;;;;;;;2.22;1.27;;;;;;;;;;4973899;28;20082;-64
2022/09/05 14:33:27;;;;;;;3.35;1.50;;;;;;;;;;4973711;28;20428;-64
2022/09/05 14:36:17;;;;;;;2.95;1.48;;;;;;;;;;4973865;28;20031;-64
2022/09/05 14:39:10;;;;;;;2.15;1.40;;;;;;;;;;4973563;28;20034;-64
2022/09/05 14:41:59;;;;;;;3.80;1.15;;;;;;;;;;4973388;28;20026;-64
2022/09/05 14:44:36;;;;;;;6.05;1.30;;;;;;;;;;4973651;28;20532;-65
2022/09/05 14:47:44;;;;;;;6.22;1.40;;;;;;;;;;4973735;28;20082;-67
2022/09/05 14:50:16;;;;;;;2.83;1.35;;;;;;;;;;5000481;28;20331;-64
2022/09/05 14:53:18;;;;;;;4.65;1.25;;;;;;;;;;5034078;28;20022;-64
2022/09/05 14:55:56;;;;;;;2.95;1.15;;;;;;;;;;5033809;28;20387;-65
2022/09/05 14:58:25;;;;;;;5.30;1.20;;;;;;;;;;5034305;28;20029;-65
2022/09/05 15:01:10;;;;;;;5.50;1.10;;;;;;;;;;5034172;28;20375;-65
2022/09/05 15:03:42;;;;;;;2.95;1.00;;;;;;;;;;5034037;28;20052;-64
2022/09/05 15:06:27;;;;;;;4.03;1.23;;;;;;;;;;5034227;28;20048;-65
2022/09/05 15:09:01;;;;;;;4.38;1.40;;;;;;;;;;5034008;28;20060;-64
2022/09/05 15:11:29;;;;;;;3.42;1.05;;;;;;;;;;5033728;28;20025;-66
2022/09/05 15:14:02;;;;;;;2.42;1.20;;;;;;;;;;5034099;28;20034;-65
2022/09/05 15:16:29;;;;;;;4.20;1.05;;;;;;;;;;5033941;28;20071;-68
2022/09/05 15:18:55;;;;;;;3.33;1.13;;;;;;;;;;5033935;28;20028;-64
2022/09/05 15:21:39;;;;;;;3.15;1.10;;;;;;;;;;5033795;28;20026;-64
2022/09/05 15:24:22;;;;;;;4.20;1.30;;;;;;;;;;5033393;28;20036;-67
2022/09/05 15:27:00;;;;;;;3.63;1.20;;;;;;;;;;5033187;28;20053;-63
2022/09/05 15:29:34;;;;;;;3.45;1.55;;;;;;;;;;5033476;28;20032;-64
2022/09/05 15:32:21;;;;;;;3.35;1.27;;;;;;;;;;5033234;28;20037;-64
2022/09/05 15:34:48;;;;;;;2.42;0.90;;;;;;;;;;5033561;28;20087;-64
2022/09/05 15:37:39;;;;;;;2.65;1.30;;;;;;;;;;5033732;28;20382;-63
2022/09/05 15:40:19;;;;;;;2.42;1.00;;;;;;;;;;5033324;28;20033;-66
2022/09/05 15:42:49;;;;;;;2.60;1.20;;;;;;;;;;5032353;28;20458;-65
2022/09/05 15:45:23;;;;;;;2.15;0.90;;;;;;;;;;5031860;28;20328;-64
2022/09/05 15:48:02;;;;;;;4.00;1.30;;;;;;;;;;5031611;28;20017;-63
2022/09/05 15:50:35;;;;;;;5.97;1.10;;;;;;;;;;5031559;28;20101;-64
2022/09/05 15:53:01;;;;;;;6.05;1.10;;;;;;;;;;5031263;28;20021;-64
2022/09/05 15:55:27;;;;;;;3.15;1.10;;;;;;;;;;5031619;28;20106;-64
2022/09/05 15:58:05;;;;;;;3.55;1.95;;;;;;;;;;5033280;28;20033;-64
2022/09/05 16:00:37;;;;;;;5.55;1.20;;;;;;;;;;5033142;28;20029;-64
2022/09/05 16:03:24;;;;;;;4.38;2.45;;;;;;;;;;5033027;28;20025;-65
2022/09/05 16:05:53;;;;;;;4.25;1.50;;;;;;;;;;5032615;28;20486;-64
2022/09/05 16:08:21;;;;;;;5.70;3.20;;;;;;;;;;5032735;28;20051;-64
2022/09/05 16:10:47;;;;;;;4.65;1.42;;;;;;;;;;5033241;28;20378;-64